< < Back
Terminal Aerodrome Forecast


Current Version              Previous Versions:   1  2  3  4  5  6  7  8  9  

Terminal Aerodrome Forecast

926
FTUS42 KCAE 260521
TAFCAE
TAF
KCAE 260521Z 2606/2706 13006KT P6SM SCT250
     FM260700 14004KT P6SM SCT020 OVC250
      TEMPO 2610/2613 5SM BR OVC010
     FM261500 16008KT P6SM BKN040=



Latest METAR

501
SAUS80 KWBC 260500
MTRCAE
METAR KCAE 260456Z 12004KT 10SM SCT200 23/18 A3026 RMK AO2 SLP242
T02280183 402940144


USA.gov is the U.S. government's official web portal to all federal, state and local government web resources and services.